Time;durP1;ratioP1;P1;durP2;ratioP2;P2;SDS_P1;SDS_P2;PMS_P1;PMS_P2;Temp;Humidity;BMP_temperature;BMP_pressure;BME280_temperature;BME280_humidity;BME280_pressure;Samples;Min_cycle;Max_cycle;Signal;HPM_P1;HPM_P2
2021/01/06 00:00:07;;;;;;;32.97;31.27;;;3.60;1.00;;;;;;4996726;28;20590;-72
2021/01/06 00:02:32;;;;;;;31.85;30.30;;;3.60;1.00;;;;;;4996683;28;20525;-72
2021/01/06 00:04:58;;;;;;;25.63;24.13;;;3.60;1.00;;;;;;4996855;28;20256;-72
2021/01/06 00:07:23;;;;;;;29.90;28.07;;;3.60;1.00;;;;;;4995657;28;20215;-72
2021/01/06 00:09:49;;;;;;;33.93;32.23;;;3.60;1.00;;;;;;4996341;28;20226;-72
2021/01/06 00:12:18;;;;;;;34.77;32.90;;;3.70;1.00;;;;;;4996483;28;20204;-72
2021/01/06 00:14:44;;;;;;;34.25;32.60;;;3.70;1.00;;;;;;4996456;28;20199;-72
2021/01/06 00:17:10;;;;;;;31.70;30.10;;;3.60;1.00;;;;;;4995678;28;20184;-72
2021/01/06 00:19:35;;;;;;;35.40;33.40;;;3.60;1.00;;;;;;4995821;28;20905;-72
2021/01/06 00:22:01;;;;;;;31.23;29.73;;;3.60;1.00;;;;;;4995895;28;20614;-72
2021/01/06 00:24:27;;;;;;;37.33;35.00;;;3.60;1.00;;;;;;4996183;28;20522;-72
2021/01/06 00:26:53;;;;;;;28.57;27.17;;;3.60;1.00;;;;;;4994664;28;20266;-72
2021/01/06 00:29:18;;;;;;;28.90;27.50;;;3.60;1.00;;;;;;4996214;28;20427;-72
2021/01/06 00:31:44;;;;;;;26.93;25.67;;;3.60;1.00;;;;;;4996271;28;20195;-72
2021/01/06 00:34:12;;;;;;;32.95;31.55;;;3.60;1.00;;;;;;4995827;28;20172;-72
2021/01/06 00:36:38;;;;;;;35.08;33.58;;;3.60;1.00;;;;;;4995248;28;20607;-72
2021/01/06 00:39:05;;;;;;;25.80;24.58;;;3.60;1.00;;;;;;4995783;28;20721;-72
2021/01/06 00:41:33;;;;;;;23.20;21.80;;;3.60;1.00;;;;;;4994624;28;20258;-72
2021/01/06 00:43:59;;;;;;;28.63;27.02;;;3.60;1.00;;;;;;4995915;28;20293;-72
2021/01/06 00:46:29;;;;;;;29.52;27.77;;;3.60;1.00;;;;;;4995518;28;20207;-72
2021/01/06 00:48:56;;;;;;;30.08;28.55;;;3.60;1.00;;;;;;4995576;28;20547;-72
2021/01/06 00:51:22;;;;;;;27.20;25.70;;;3.60;1.00;;;;;;4995432;28;20250;-72
2021/01/06 00:53:47;;;;;;;28.10;26.60;;;3.50;1.00;;;;;;4994250;28;20267;-72
2021/01/06 00:56:13;;;;;;;26.80;25.40;;;3.60;1.00;;;;;;4995250;28;20172;-72
2021/01/06 00:58:38;;;;;;;29.63;27.83;;;3.60;1.00;;;;;;4995070;28;20547;-72
2021/01/06 01:01:04;;;;;;;27.60;26.07;;;3.60;1.00;;;;;;4995713;28;20568;-72
2021/01/06 01:03:29;;;;;;;29.20;27.77;;;3.60;1.00;;;;;;4995265;28;20537;-72
2021/01/06 01:05:55;;;;;;;26.07;24.43;;;3.60;1.00;;;;;;4994906;28;20180;-72
2021/01/06 01:08:21;;;;;;;25.87;24.37;;;3.60;1.00;;;;;;4995153;28;20272;-72
2021/01/06 01:10:49;;;;;;;28.40;26.80;;;3.60;1.00;;;;;;4995246;28;20595;-72
2021/01/06 01:13:18;;;;;;;25.35;24.17;;;3.60;1.00;;;;;;4995469;28;20187;-72
2021/01/06 01:15:52;;;;;;;23.25;21.90;;;3.60;1.00;;;;;;4995264;28;20211;-72
2021/01/06 01:18:22;;;;;;;31.50;29.70;;;3.60;1.00;;;;;;4995075;28;20207;-72
2021/01/06 01:20:50;;;;;;;24.92;23.65;;;3.60;1.00;;;;;;4995033;28;20183;-72
2021/01/06 01:23:17;;;;;;;27.77;26.38;;;3.50;1.00;;;;;;4995040;28;20529;-72
2021/01/06 01:25:43;;;;;;;23.60;22.27;;;3.60;1.00;;;;;;4994972;28;20572;-72
2021/01/06 01:28:11;;;;;;;30.50;28.98;;;3.60;1.00;;;;;;4994895;28;20207;-72
2021/01/06 01:30:37;;;;;;;27.00;25.80;;;3.60;1.00;;;;;;4995083;28;20164;-72
2021/01/06 01:33:03;;;;;;;29.30;27.80;;;3.60;1.00;;;;;;4995100;28;20176;-72
2021/01/06 01:35:31;;;;;;;24.55;23.30;;;3.60;1.00;;;;;;4994644;28;20207;-72
2021/01/06 01:38:01;;;;;;;24.10;22.90;;;3.70;1.00;;;;;;4994560;28;20262;-72
2021/01/06 01:40:31;;;;;;;29.75;28.45;;;3.60;1.00;;;;;;4995015;28;20548;-72
2021/01/06 01:42:57;;;;;;;22.98;21.80;;;3.60;1.00;;;;;;4994806;28;20286;-72
2021/01/06 01:45:31;;;;;;;26.88;25.48;;;3.60;1.00;;;;;;4994710;28;20536;-72
2021/01/06 01:48:02;;;;;;;24.80;23.58;;;3.60;1.00;;;;;;4992371;28;20199;-72
2021/01/06 01:50:29;;;;;;;25.95;24.65;;;3.60;1.00;;;;;;4994194;28;20167;-72
2021/01/06 01:53:05;;;;;;;27.80;26.60;;;3.60;1.00;;;;;;4994826;28;20633;-72
2021/01/06 01:55:31;;;;;;;33.40;31.95;;;3.50;1.00;;;;;;4994320;28;20225;-72
2021/01/06 01:58:05;;;;;;;28.10;26.70;;;3.50;1.00;;;;;;4994306;28;20199;-72
2021/01/06 02:00:35;;;;;;;30.23;28.48;;;3.50;1.00;;;;;;4994451;28;20156;-72
2021/01/06 02:03:28;;;;;;;22.27;20.83;;;3.60;1.00;;;;;;4994341;28;20187;-72
2021/01/06 02:06:12;;;;;;;29.88;28.48;;;3.60;1.00;;;;;;4993998;28;20251;-72
2021/01/06 02:08:56;;;;;;;25.80;24.23;;;3.60;1.00;;;;;;4994379;28;20661;-72
2021/01/06 02:11:28;;;;;;;29.05;27.60;;;3.60;1.00;;;;;;4994706;28;20182;-72
2021/01/06 02:13:58;;;;;;;22.35;21.25;;;3.60;1.00;;;;;;4994085;28;20171;-72
2021/01/06 02:16:33;;;;;;;22.95;21.75;;;3.50;1.00;;;;;;4994560;28;20526;-72
2021/01/06 02:18:59;;;;;;;28.02;26.63;;;3.50;1.00;;;;;;5009368;28;20206;-72
2021/01/06 02:21:27;;;;;;;23.90;22.87;;;3.60;1.00;;;;;;4994277;28;20175;-72
2021/01/06 02:23:55;;;;;;;28.55;27.25;;;3.50;1.00;;;;;;4994304;28;20940;-72
2021/01/06 02:26:23;;;;;;;26.08;24.77;;;3.50;1.00;;;;;;4994101;28;20547;-72
2021/01/06 02:28:49;;;;;;;27.27;25.88;;;3.50;1.00;;;;;;4993939;28;20198;-72
2021/01/06 02:31:16;;;;;;;27.37;26.07;;;3.60;1.00;;;;;;4994042;28;20172;-72
2021/01/06 02:33:42;;;;;;;22.55;21.33;;;3.60;1.00;;;;;;4994183;28;20226;-72
2021/01/06 02:36:08;;;;;;;25.08;23.63;;;3.60;1.00;;;;;;4993910;28;20183;-72
2021/01/06 02:38:34;;;;;;;26.23;24.60;;;3.60;1.00;;;;;;4993757;28;20202;-72
2021/01/06 02:41:01;;;;;;;22.30;21.30;;;3.60;1.00;;;;;;4994029;28;20602;-72
2021/01/06 02:43:28;;;;;;;24.08;22.67;;;3.70;1.00;;;;;;4993819;28;20290;-72
2021/01/06 02:45:55;;;;;;;21.45;20.23;;;3.60;1.00;;;;;;4993702;28;20172;-72
2021/01/06 02:48:21;;;;;;;25.30;24.00;;;3.60;1.00;;;;;;4994075;28;20197;-72
2021/01/06 02:50:52;;;;;;;23.52;22.40;;;3.60;1.00;;;;;;4994095;28;20180;-72
2021/01/06 02:53:22;;;;;;;24.30;23.20;;;3.50;1.00;;;;;;4994162;28;20172;-72
2021/01/06 02:55:49;;;;;;;23.63;22.25;;;3.60;1.00;;;;;;4994037;28;20176;-72
2021/01/06 02:58:21;;;;;;;31.20;29.60;;;3.50;1.00;;;;;;4994373;28;20183;-72
2021/01/06 03:00:48;;;;;;;28.15;26.65;;;3.50;1.00;;;;;;4996378;28;20184;-72
2021/01/06 03:03:14;;;;;;;23.15;21.85;;;3.50;1.00;;;;;;4996392;28;20283;-72
2021/01/06 03:05:45;;;;;;;20.23;19.23;;;3.50;1.00;;;;;;4997448;28;20255;-72
2021/01/06 03:08:15;;;;;;;21.75;20.55;;;3.50;1.00;;;;;;4997215;28;20484;-72
2021/01/06 03:10:41;;;;;;;28.15;26.65;;;3.50;1.00;;;;;;4997592;28;20167;-72
2021/01/06 03:13:07;;;;;;;26.40;24.80;;;3.50;1.20;;;;;;4996104;28;20180;-72
2021/01/06 03:15:33;;;;;;;27.47;26.03;;;3.50;1.40;;;;;;4997201;28;20218;-72
2021/01/06 03:17:59;;;;;;;28.23;26.57;;;3.50;1.50;;;;;;4997241;28;20192;-72
2021/01/06 03:20:40;;;;;;;29.67;28.17;;;3.40;2.10;;;;;;4997595;28;20403;-72
2021/01/06 03:23:12;;;;;;;27.20;25.65;;;3.50;2.90;;;;;;4997154;28;20446;-72
2021/01/06 03:25:40;;;;;;;26.15;24.55;;;3.40;3.10;;;;;;4995510;28;20270;-72
2021/01/06 03:28:06;;;;;;;26.88;24.50;;;3.40;4.80;;;;;;4996776;28;20192;-72
2021/01/06 03:30:34;;;;;;;27.67;25.97;;;3.30;6.00;;;;;;4997188;28;20199;-72
2021/01/06 03:33:02;;;;;;;24.40;23.20;;;3.40;7.30;;;;;;4997338;28;20791;-72
2021/01/06 03:35:41;;;;;;;24.90;23.52;;;3.40;7.40;;;;;;4996688;28;20187;-72
2021/01/06 03:38:33;;;;;;;32.88;31.38;;;3.40;6.90;;;;;;4997074;28;20633;-72
2021/01/06 03:41:00;;;;;;;25.00;23.20;;;3.40;6.80;;;;;;4997026;28;20587;-72
2021/01/06 03:43:29;;;;;;;25.83;24.48;;;3.40;7.00;;;;;;4997034;28;20208;-72
2021/01/06 03:46:03;;;;;;;29.23;27.48;;;3.40;6.90;;;;;;4995163;28;20175;-72
2021/01/06 03:48:49;;;;;;;28.52;26.80;;;3.40;6.70;;;;;;4996785;28;20265;-72
2021/01/06 03:51:43;;;;;;;28.10;26.35;;;3.40;6.50;;;;;;4996891;28;20491;-72
2021/01/06 03:54:50;;;;;;;33.53;31.63;;;3.40;7.20;;;;;;4996804;28;20722;-72
2021/01/06 03:57:18;;;;;;;27.02;25.38;;;3.50;7.50;;;;;;4996369;28;20171;-72
2021/01/06 03:59:46;;;;;;;26.83;24.80;;;3.40;7.30;;;;;;4996988;28;20179;-72
2021/01/06 04:02:32;;;;;;;32.85;30.92;;;3.40;7.40;;;;;;4996784;28;20184;-72
2021/01/06 04:05:12;;;;;;;28.10;26.40;;;3.50;7.40;;;;;;4996499;28;20254;-72
2021/01/06 04:07:53;;;;;;;26.42;25.13;;;3.50;7.40;;;;;;4995909;28;20209;-72
2021/01/06 04:10:24;;;;;;;30.65;29.08;;;3.50;7.10;;;;;;4995903;28;20176;-72
2021/01/06 04:12:50;;;;;;;27.10;25.77;;;3.50;7.70;;;;;;4996726;28;20530;-72
2021/01/06 04:15:17;;;;;;;30.30;28.80;;;3.50;7.60;;;;;;4996079;28;20175;-72
2021/01/06 04:17:54;;;;;;;27.88;26.42;;;3.50;7.90;;;;;;4995965;28;20188;-72
2021/01/06 04:20:39;;;;;;;36.83;34.60;;;3.50;8.80;;;;;;4996295;28;20179;-72
2021/01/06 04:23:08;;;;;;;33.47;30.98;;;3.50;8.60;;;;;;4995708;28;20188;-72
2021/01/06 04:25:36;;;;;;;35.28;33.63;;;3.50;8.70;;;;;;4996083;28;20172;-72
2021/01/06 04:28:04;;;;;;;37.25;35.45;;;3.50;8.60;;;;;;4995908;28;20227;-72
2021/01/06 04:30:37;;;;;;;32.00;30.35;;;3.50;8.50;;;;;;4996003;28;20172;-72
2021/01/06 04:33:11;;;;;;;27.08;25.65;;;3.50;9.50;;;;;;4996282;28;20176;-72
2021/01/06 04:35:36;;;;;;;27.65;26.05;;;3.50;9.30;;;;;;4995765;28;20187;-72
2021/01/06 04:38:02;;;;;;;23.60;21.90;;;3.50;9.00;;;;;;4995750;28;20195;-72
2021/01/06 04:40:40;;;;;;;32.60;30.80;;;3.50;9.40;;;;;;4995622;28;20259;-72
2021/01/06 04:43:43;;;;;;;23.88;22.42;;;3.50;10.40;;;;;;4995777;28;20274;-72
2021/01/06 04:46:16;;;;;;;29.65;28.10;;;3.50;10.80;;;;;;4976176;28;20181;-72
2021/01/06 04:48:58;;;;;;;27.42;25.90;;;3.50;10.60;;;;;;4995661;28;20195;-72
2021/01/06 04:51:44;;;;;;;28.00;26.42;;;3.50;11.70;;;;;;4995692;28;20206;-72
2021/01/06 04:54:43;;;;;;;24.55;23.25;;;3.50;12.00;;;;;;4995837;28;20511;-72
2021/01/06 04:57:15;;;;;;;26.08;24.67;;;3.60;12.10;;;;;;4995139;28;20606;-72
2021/01/06 04:59:53;;;;;;;29.73;27.83;;;3.50;11.90;;;;;;4994239;28;20322;-72
2021/01/06 05:02:31;;;;;;;26.80;25.42;;;3.50;12.30;;;;;;4995679;28;20172;-72
2021/01/06 05:05:27;;;;;;;35.20;33.45;;;3.40;13.70;;;;;;4995700;28;20168;-72
2021/01/06 05:08:31;;;;;;;26.45;24.98;;;3.50;15.10;;;;;;4994686;28;20235;-72
2021/01/06 05:11:08;;;;;;;23.00;21.77;;;3.50;16.40;;;;;;4976261;28;20606;-72
2021/01/06 05:13:49;;;;;;;24.77;23.67;;;3.50;15.80;;;;;;4994566;28;20174;-72
2021/01/06 05:16:35;;;;;;;25.17;23.90;;;3.50;16.30;;;;;;4994929;28;20188;-72
2021/01/06 05:19:04;;;;;;;24.85;23.58;;;3.60;16.40;;;;;;4995423;28;20187;-72
2021/01/06 05:21:39;;;;;;;27.63;26.20;;;3.60;15.10;;;;;;4995159;28;20174;-72
2021/01/06 05:24:39;;;;;;;24.10;22.80;;;3.50;15.10;;;;;;4994801;28;20253;-72
2021/01/06 05:27:13;;;;;;;29.95;28.55;;;3.60;16.20;;;;;;4993110;28;20570;-72
2021/01/06 05:30:00;;;;;;;31.75;30.17;;;3.60;16.10;;;;;;4995214;28;20684;-72
2021/01/06 05:32:33;;;;;;;34.70;33.13;;;3.60;16.90;;;;;;4994592;28;20184;-72
2021/01/06 05:35:05;;;;;;;29.45;28.10;;;3.60;17.60;;;;;;4994835;28;20246;-72
2021/01/06 05:37:31;;;;;;;28.17;26.88;;;3.60;17.20;;;;;;4994732;28;20294;-72
2021/01/06 05:40:05;;;;;;;32.42;30.83;;;3.60;18.00;;;;;;4995078;28;20191;-72
2021/01/06 05:42:40;;;;;;;39.40;37.60;;;3.50;18.40;;;;;;4994614;28;20511;-72
2021/01/06 05:45:07;;;;;;;30.05;28.88;;;3.50;19.50;;;;;;4993109;28;20258;-72
2021/01/06 05:47:55;;;;;;;36.08;34.35;;;3.50;21.50;;;;;;4994409;28;20278;-72
2021/01/06 05:50:30;;;;;;;31.63;30.13;;;3.50;22.30;;;;;;4994991;28;20159;-72
2021/01/06 05:53:12;;;;;;;26.10;24.80;;;3.40;21.80;;;;;;4995040;28;20226;-72
2021/01/06 05:55:41;;;;;;;27.52;26.10;;;3.40;22.40;;;;;;4994435;28;20175;-72
2021/01/06 05:58:38;;;;;;;22.15;20.80;;;3.50;23.70;;;;;;4994636;28;20246;-72
2021/01/06 06:01:17;;;;;;;19.17;18.10;;;3.50;24.00;;;;;;4989736;28;20196;-72
2021/01/06 06:03:45;;;;;;;23.17;21.83;;;3.40;24.70;;;;;;4994286;28;20217;-72
2021/01/06 06:06:48;;;;;;;25.10;23.65;;;3.40;25.80;;;;;;4993933;28;20176;-72
2021/01/06 06:09:43;;;;;;;25.73;24.00;;;3.30;27.20;;;;;;4994593;28;20286;-72
2021/01/06 06:12:24;;;;;;;20.58;19.33;;;3.30;28.00;;;;;;4994505;28;20168;-72
2021/01/06 06:15:13;;;;;;;25.05;23.70;;;3.30;28.30;;;;;;4993249;28;20172;-72
2021/01/06 06:18:18;;;;;;;26.83;25.63;;;3.30;28.30;;;;;;4994303;28;20549;-72
2021/01/06 06:21:08;;;;;;;21.58;20.30;;;3.30;28.70;;;;;;4994332;28;20199;-72
2021/01/06 06:24:10;;;;;;;25.83;24.13;;;3.30;28.30;;;;;;4994496;28;20195;-72
2021/01/06 06:27:05;;;;;;;26.20;24.77;;;3.30;29.50;;;;;;4993925;28;20210;-72
2021/01/06 06:29:54;;;;;;;23.08;21.80;;;3.30;29.00;;;;;;4994528;28;20160;-72
2021/01/06 06:32:29;;;;;;;23.33;22.10;;;3.30;30.00;;;;;;4994362;28;20175;-72
2021/01/06 06:35:22;;;;;;;25.30;23.45;;;3.30;30.00;;;;;;4997860;28;20164;-72
2021/01/06 06:38:10;;;;;;;23.00;21.70;;;3.30;29.40;;;;;;4993373;28;20298;-72
2021/01/06 06:40:56;;;;;;;19.77;18.60;;;3.40;29.10;;;;;;4997962;28;20526;-72
2021/01/06 06:43:44;;;;;;;23.55;22.35;;;3.40;29.50;;;;;;4998113;28;20195;-72
2021/01/06 06:46:31;;;;;;;19.05;18.05;;;3.30;29.40;;;;;;4997847;28;20172;-72
2021/01/06 06:49:24;;;;;;;24.17;22.98;;;3.40;31.60;;;;;;4998186;28;20210;-72
2021/01/06 06:51:59;;;;;;;23.60;21.95;;;3.40;32.60;;;;;;4996480;28;20176;-72
2021/01/06 06:54:43;;;;;;;23.17;22.17;;;3.30;31.80;;;;;;4997838;28;20309;-72
2021/01/06 06:57:23;;;;;;;25.92;24.60;;;3.40;31.20;;;;;;4997824;28;20686;-72
2021/01/06 06:59:54;;;;;;;27.50;26.35;;;3.40;31.50;;;;;;4997513;28;20172;-72
2021/01/06 07:02:20;;;;;;;29.10;27.35;;;3.30;31.90;;;;;;4997509;28;20199;-72
2021/01/06 07:05:00;;;;;;;21.55;20.27;;;3.30;31.50;;;;;;4997644;28;20577;-72
2021/01/06 07:07:49;;;;;;;21.85;20.75;;;3.20;32.70;;;;;;4997373;28;20212;-71
2021/01/06 07:10:28;;;;;;;17.58;16.67;;;3.20;34.70;;;;;;4997552;28;20198;-72
2021/01/06 07:13:00;;;;;;;21.40;20.20;;;3.30;35.30;;;;;;4997508;28;20168;-72
2021/01/06 07:15:40;;;;;;;20.90;19.80;;;3.30;36.40;;;;;;4997261;28;20204;-72
2021/01/06 07:18:37;;;;;;;19.05;17.95;;;3.40;36.60;;;;;;4997349;28;20188;-72
2021/01/06 07:21:11;;;;;;;18.77;17.85;;;3.40;37.40;;;;;;4997282;28;20219;-72
2021/01/06 07:23:46;;;;;;;19.45;18.13;;;3.40;37.30;;;;;;4997268;28;20203;-72
2021/01/06 07:26:18;;;;;;;26.05;24.65;;;3.40;38.00;;;;;;4997078;28;20732;-72
2021/01/06 07:28:44;;;;;;;27.60;26.33;;;3.40;37.90;;;;;;4997070;28;20191;-72
2021/01/06 07:31:23;;;;;;;21.70;20.60;;;3.40;35.80;;;;;;4995685;28;20187;-72
2021/01/06 07:33:56;;;;;;;21.95;20.85;;;3.30;35.00;;;;;;4997134;28;20179;-72
2021/01/06 07:36:29;;;;;;;22.10;21.00;;;3.30;36.80;;;;;;4996694;28;20255;-72
2021/01/06 07:38:56;;;;;;;20.60;19.60;;;3.30;36.70;;;;;;4997303;28;20725;-72
2021/01/06 07:41:23;;;;;;;29.88;27.98;;;3.30;36.60;;;;;;4996917;28;20176;-72
2021/01/06 07:44:07;;;;;;;31.45;29.75;;;3.20;37.00;;;;;;4996490;28;20196;-72
2021/01/06 07:46:47;;;;;;;25.05;23.77;;;3.20;36.70;;;;;;4994120;28;20218;-72
2021/01/06 07:49:37;;;;;;;21.38;20.20;;;3.20;38.00;;;;;;4995812;28;20218;-72
2021/01/06 07:52:33;;;;;;;28.98;27.10;;;3.20;37.50;;;;;;4996830;28;20184;-72
2021/01/06 07:55:18;;;;;;;35.33;32.88;;;3.20;37.20;;;;;;4997073;28;20606;-72
2021/01/06 07:58:05;;;;;;;26.85;25.60;;;3.20;37.90;;;;;;4995582;28;20192;-72
2021/01/06 08:00:42;;;;;;;25.80;24.15;;;3.20;39.00;;;;;;4995463;28;20171;-72
2021/01/06 08:03:21;;;;;;;28.35;27.08;;;3.30;39.70;;;;;;4996801;28;20199;-72
2021/01/06 08:05:55;;;;;;;26.98;25.48;;;3.20;40.00;;;;;;5014048;28;20166;-72
2021/01/06 08:08:21;;;;;;;26.30;24.95;;;3.30;41.80;;;;;;5013349;28;20287;-72
2021/01/06 08:10:49;;;;;;;32.70;31.03;;;3.30;42.30;;;;;;5046930;28;20325;-72
2021/01/06 08:13:17;;;;;;;26.67;25.48;;;3.30;41.40;;;;;;5015060;28;20417;-72
2021/01/06 08:15:46;;;;;;;25.83;24.27;;;3.20;40.60;;;;;;5014987;28;20171;-72
2021/01/06 08:18:22;;;;;;;21.30;20.20;;;3.20;41.10;;;;;;5015500;28;20240;-72
2021/01/06 08:21:02;;;;;;;23.92;22.75;;;3.20;40.90;;;;;;5015392;28;20553;-72
2021/01/06 08:23:47;;;;;;;23.88;22.67;;;3.30;40.90;;;;;;5015535;28;20241;-70
2021/01/06 08:26:21;;;;;;;21.95;20.65;;;3.30;41.40;;;;;;5047108;28;20175;-72
2021/01/06 08:28:47;;;;;;;27.95;26.65;;;3.30;41.50;;;;;;5015459;28;20202;-72
2021/01/06 08:31:19;;;;;;;30.40;29.00;;;3.20;42.00;;;;;;5015205;28;20186;-72
2021/01/06 08:33:55;;;;;;;25.42;24.10;;;3.20;42.70;;;;;;5015439;28;20671;-72
2021/01/06 08:36:37;;;;;;;31.85;30.48;;;3.30;43.00;;;;;;5015170;28;20175;-70
2021/01/06 08:39:21;;;;;;;30.15;28.55;;;3.30;42.80;;;;;;5015102;28;20206;-72
2021/01/06 08:41:47;;;;;;;26.73;25.52;;;3.30;44.10;;;;;;5015539;28;20175;-71
2021/01/06 08:44:49;;;;;;;35.58;34.00;;;3.40;44.90;;;;;;5014702;28;20564;-69
2021/01/06 08:47:28;;;;;;;28.10;26.80;;;3.50;46.80;;;;;;5003165;28;20179;-70
2021/01/06 08:49:54;;;;;;;29.88;28.58;;;3.50;48.10;;;;;;5014880;28;20167;-70
2021/01/06 08:52:27;;;;;;;29.50;28.30;;;3.50;48.50;;;;;;5014834;28;20258;-69
2021/01/06 08:55:23;;;;;;;22.52;21.23;;;3.50;47.10;;;;;;5015089;28;20206;-69
2021/01/06 08:58:03;;;;;;;22.27;20.95;;;3.60;49.30;;;;;;5014389;28;20191;-70
2021/01/06 09:00:57;;;;;;;26.30;24.92;;;3.50;25.10;;;;;;5014660;28;20171;-71
2021/01/06 09:03:59;;;;;;;28.35;26.85;;;3.50;25.00;;;;;;5014937;28;20293;-71
2021/01/06 09:06:25;;;;;;;26.20;24.85;;;3.50;26.30;;;;;;5014657;28;20155;-71
2021/01/06 09:08:58;;;;;;;26.40;25.25;;;3.60;27.50;;;;;;5014544;28;20238;-71
2021/01/06 09:11:45;;;;;;;30.08;28.67;;;3.50;27.50;;;;;;5014819;28;20175;-71
2021/01/06 09:14:23;;;;;;;31.23;29.73;;;3.50;27.80;;;;;;5014952;28;20175;-71
2021/01/06 09:17:09;;;;;;;30.70;29.08;;;3.40;29.60;;;;;;5014351;28;20171;-71
2021/01/06 09:19:46;;;;;;;26.48;25.05;;;3.30;31.40;;;;;;5014841;28;20246;-71
2021/01/06 09:22:14;;;;;;;25.20;23.60;;;3.30;32.50;;;;;;5014762;28;20214;-71
2021/01/06 09:24:41;;;;;;;123.57;76.20;;;3.30;32.50;;;;;;5014750;28;20547;-71
2021/01/06 09:27:46;;;;;;;45.97;41.97;;;3.40;33.50;;;;;;5014035;28;20179;-71
2021/01/06 09:30:15;;;;;;;29.90;28.17;;;3.40;34.10;;;;;;5014159;28;20183;-70
2021/01/06 09:32:42;;;;;;;29.52;27.95;;;3.50;35.60;;;;;;5014404;28;20167;-69
2021/01/06 09:35:13;;;;;;;26.98;25.50;;;3.50;35.30;;;;;;5014300;28;20179;-70
2021/01/06 09:37:47;;;;;;;28.98;27.58;;;3.40;35.00;;;;;;5013963;28;20194;-70
2021/01/06 09:40:18;;;;;;;28.10;26.20;;;3.50;35.70;;;;;;5046084;28;20187;-70
2021/01/06 09:42:46;;;;;;;25.30;23.98;;;3.40;35.40;;;;;;5014449;28;20191;-70
2021/01/06 09:45:20;;;;;;;27.70;25.75;;;3.40;36.80;;;;;;5014273;28;20265;-70
2021/01/06 09:47:47;;;;;;;25.08;23.65;;;3.40;38.10;;;;;;5014189;28;20199;-70
2021/01/06 09:50:21;;;;;;;24.20;22.90;;;3.40;38.30;;;;;;5014649;28;20680;-70
2021/01/06 09:52:49;;;;;;;26.75;24.67;;;3.30;37.80;;;;;;5014299;28;20175;-70
2021/01/06 09:55:21;;;;;;;23.30;22.05;;;3.30;37.80;;;;;;5014237;28;20704;-70
2021/01/06 09:58:07;;;;;;;30.98;29.42;;;3.30;37.80;;;;;;5013955;28;20194;-70
2021/01/06 10:00:54;;;;;;;36.45;34.45;;;3.30;39.30;;;;;;5014131;28;20249;-70
2021/01/06 10:03:20;;;;;;;29.98;28.33;;;3.30;40.30;;;;;;5013995;28;20202;-70
2021/01/06 10:06:00;;;;;;;29.05;27.70;;;3.40;40.50;;;;;;5013961;28;20221;-70
2021/01/06 10:08:54;;;;;;;27.92;26.48;;;3.30;39.90;;;;;;5013012;28;20203;-70
2021/01/06 10:11:45;;;;;;;32.88;31.38;;;3.40;39.20;;;;;;5009708;28;20183;-70
2021/01/06 10:14:28;;;;;;;30.95;29.27;;;3.40;40.20;;;;;;5003813;28;20236;-70
2021/01/06 10:17:18;;;;;;;34.58;32.70;;;3.50;41.60;;;;;;5013484;28;20163;-70
2021/01/06 10:20:11;;;;;;;29.88;28.38;;;3.60;42.70;;;;;;5013773;28;20203;-70
2021/01/06 10:22:36;;;;;;;28.85;27.20;;;3.60;42.30;;;;;;5012363;28;20294;-70
2021/01/06 10:25:14;;;;;;;30.27;28.90;;;3.50;40.60;;;;;;5014080;28;20167;-70
2021/01/06 10:27:54;;;;;;;31.60;30.10;;;3.40;42.00;;;;;;5014032;28;20182;-69
2021/01/06 10:30:22;;;;;;;27.33;25.67;;;3.40;42.80;;;;;;5003180;28;20182;-70
2021/01/06 10:33:24;;;;;;;25.52;24.05;;;3.40;41.50;;;;;;5005095;28;20180;-70
2021/01/06 10:36:05;;;;;;;32.10;30.00;;;3.40;43.20;;;;;;4991521;28;20167;-70
2021/01/06 10:38:42;;;;;;;37.33;34.80;;;3.40;43.50;;;;;;4991880;28;20187;-71
2021/01/06 10:41:24;;;;;;;37.10;35.28;;;3.40;45.30;;;;;;4991913;28;20263;-70
2021/01/06 10:43:51;;;;;;;34.78;32.60;;;3.40;46.30;;;;;;4991516;28;20262;-70
2021/01/06 10:46:51;;;;;;;35.05;33.15;;;3.40;46.20;;;;;;4992053;28;20160;-70
2021/01/06 10:49:19;;;;;;;36.83;34.47;;;3.40;46.50;;;;;;4992043;28;20318;-71
2021/01/06 10:52:00;;;;;;;29.20;27.40;;;3.40;50.20;;;;;;4990665;28;20677;-70
2021/01/06 10:54:39;;;;;;;32.45;30.77;;;3.40;44.90;;;;;;4992446;28;20180;-74
2021/01/06 10:57:19;;;;;;;31.88;29.92;;;3.40;45.20;;;;;;4992339;28;20164;-71
2021/01/06 11:00:15;;;;;;;31.35;29.67;;;3.40;44.90;;;;;;4991598;28;20657;-71
2021/01/06 11:03:00;;;;;;;23.05;21.67;;;3.40;45.20;;;;;;4990840;28;20200;-70
2021/01/06 11:05:36;;;;;;;26.48;24.70;;;3.30;44.60;;;;;;4992337;28;20172;-70
2021/01/06 11:08:15;;;;;;;24.17;22.88;;;3.40;45.00;;;;;;4991611;28;20218;-71
2021/01/06 11:11:01;;;;;;;30.35;28.75;;;3.40;45.10;;;;;;4992066;28;20187;-71
2021/01/06 11:13:49;;;;;;;26.88;25.25;;;3.40;45.20;;;;;;4990368;28;20187;-71
2021/01/06 11:16:21;;;;;;;28.98;27.27;;;3.40;45.20;;;;;;4991930;28;20164;-71
2021/01/06 11:18:48;;;;;;;26.23;24.63;;;3.40;45.20;;;;;;4991857;28;20254;-70
2021/01/06 11:21:40;;;;;;;27.23;25.73;;;3.40;45.30;;;;;;4995539;28;20512;-72
2021/01/06 11:24:32;;;;;;;27.83;26.23;;;3.30;45.80;;;;;;4995151;28;20271;-71
2021/01/06 11:26:58;;;;;;;34.40;32.40;;;3.40;46.70;;;;;;4994121;28;20180;-71
2021/01/06 11:29:29;;;;;;;32.30;30.50;;;3.40;46.60;;;;;;4994527;28;20650;-72
2021/01/06 11:32:01;;;;;;;32.88;30.92;;;3.40;46.30;;;;;;4995300;28;20406;-71
2021/01/06 11:34:34;;;;;;;36.67;33.90;;;3.50;46.30;;;;;;4995238;28;20179;-72
2021/01/06 11:37:04;;;;;;;29.90;27.45;;;3.50;46.20;;;;;;4994639;28;20190;-69
2021/01/06 11:39:36;;;;;;;28.38;26.27;;;3.50;45.60;;;;;;4994354;28;20182;-69
2021/01/06 11:42:12;;;;;;;30.85;28.67;;;3.50;46.40;;;;;;4993649;28;20348;-69
2021/01/06 11:45:13;;;;;;;30.48;28.60;;;3.50;45.60;;;;;;4994121;28;20254;-69
2021/01/06 11:47:56;;;;;;;29.90;28.30;;;3.50;45.40;;;;;;4993934;28;20917;-69
2021/01/06 11:50:48;;;;;;;34.22;32.33;;;3.50;45.00;;;;;;4992863;28;20216;-69
2021/01/06 11:53:16;;;;;;;26.92;25.23;;;3.50;45.90;;;;;;4993821;28;20195;-69
2021/01/06 11:55:48;;;;;;;25.95;23.92;;;3.50;46.30;;;;;;4993897;28;20187;-68
2021/01/06 11:58:31;;;;;;;26.40;24.70;;;3.50;46.80;;;;;;4993476;28;20232;-69
2021/01/06 12:01:08;;;;;;;25.08;23.35;;;3.50;47.20;;;;;;4994450;28;20234;-69
2021/01/06 12:04:01;;;;;;;28.45;26.55;;;3.40;46.30;;;;;;4994567;28;20200;-70
2021/01/06 12:06:39;;;;;;;33.30;31.20;;;3.30;47.70;;;;;;4991948;28;20196;-70
2021/01/06 12:09:38;;;;;;;38.10;35.85;;;3.30;48.50;;;;;;4994508;28;20212;-70
2021/01/06 12:12:32;;;;;;;36.60;34.10;;;3.30;49.70;;;;;;4993922;28;20176;-70
2021/01/06 12:15:25;;;;;;;36.65;34.38;;;3.30;50.00;;;;;;4994346;28;20214;-70
2021/01/06 12:17:55;;;;;;;37.83;35.20;;;3.30;49.70;;;;;;4994108;28;20195;-69
2021/01/06 12:20:28;;;;;;;30.33;28.17;;;3.40;50.30;;;;;;4995032;28;20666;-69
2021/01/06 12:23:15;;;;;;;28.88;26.63;;;3.50;50.70;;;;;;4994283;28;20666;-70
2021/01/06 12:25:46;;;;;;;29.50;26.95;;;3.50;49.50;;;;;;4993858;28;20172;-70
2021/01/06 12:28:52;;;;;;;29.98;27.75;;;3.50;49.60;;;;;;4994418;28;20196;-70
2021/01/06 12:31:26;;;;;;;34.17;32.08;;;3.50;50.50;;;;;;4981298;28;20522;-70
2021/01/06 12:34:15;;;;;;;39.25;36.75;;;3.50;55.90;;;;;;4994055;28;20191;-70
2021/01/06 12:37:03;;;;;;;38.75;36.33;;;3.60;50.60;;;;;;4994001;28;20167;-71
2021/01/06 12:39:33;;;;;;;36.25;33.47;;;3.70;49.20;;;;;;4992601;28;20258;-70
2021/01/06 12:42:14;;;;;;;32.70;30.63;;;3.70;47.70;;;;;;4998474;28;20187;-70
2021/01/06 12:44:44;;;;;;;39.63;37.03;;;3.70;47.20;;;;;;4992657;28;20616;-72
2021/01/06 12:47:21;;;;;;;28.58;26.83;;;3.80;46.90;;;;;;4993776;28;20204;-70
2021/01/06 12:50:21;;;;;;;31.95;29.75;;;3.80;46.20;;;;;;4993867;28;20178;-70
2021/01/06 12:52:54;;;;;;;40.80;38.03;;;3.80;45.50;;;;;;4988253;28;20188;-70
2021/01/06 12:55:43;;;;;;;33.55;31.23;;;3.80;43.70;;;;;;4993158;28;20179;-71
2021/01/06 12:58:33;;;;;;;41.05;38.15;;;3.70;42.50;;;;;;4987897;28;20254;-70
2021/01/06 13:01:19;;;;;;;32.28;30.30;;;3.80;43.00;;;;;;4993563;28;20208;-70
2021/01/06 13:03:47;;;;;;;31.65;29.17;;;3.70;42.50;;;;;;4992284;28;20629;-70
2021/01/06 13:06:30;;;;;;;28.08;26.27;;;3.70;42.70;;;;;;4993154;28;20168;-70
2021/01/06 13:09:08;;;;;;;27.70;25.70;;;3.60;42.90;;;;;;4992917;28;20319;-71
2021/01/06 13:11:36;;;;;;;31.23;29.33;;;3.60;44.30;;;;;;4993357;28;20708;-70
2021/01/06 13:14:28;;;;;;;32.72;30.58;;;3.60;45.40;;;;;;4993286;28;20179;-70
2021/01/06 13:17:23;;;;;;;39.17;36.78;;;3.70;46.30;;;;;;4993316;28;20250;-71
2021/01/06 13:20:08;;;;;;;41.00;38.58;;;3.70;46.30;;;;;;4993527;28;20255;-71
2021/01/06 13:22:42;;;;;;;36.35;34.03;;;3.70;46.20;;;;;;4992401;28;20503;-71
2021/01/06 13:25:29;;;;;;;30.42;28.30;;;3.70;46.50;;;;;;4993310;28;20175;-70
2021/01/06 13:28:32;;;;;;;36.67;34.58;;;3.70;45.60;;;;;;4993533;28;21199;-70